• Join FlightAware (Why Join?)
  • Login
  • US Flag 
06:38AM EDT


 

Airport Tracker/Info


-or-


 

Live Flight TrackerFlight Track Log ✈ EJA951 ✈ 15-Sep-2013 ✈ KMSO - KLAS

Flight Track Log - Related Links

Times and Time Zones

All times are in EDT time to prevent confusion due to time zone crossing. See the EJA951 flight status page for this flight to view local times or setup timezone preferences in your user account.

Time Position Orientation Groundspeed Altitude Reporting Facility
EDT Latitude Longitude Course Direction KTS MPH feet Rate Location/Type
04:00PM 46.8411 -114.0703 183° South 222 255 7,600  Level Salt Lake Center
04:01PM 46.7819 -114.0281 154° Southeast 244 281 11,300 2,760 Climbing Salt Lake Center
04:02PM 46.7014 -113.9469 145° Southeast 337 388 13,400 1,920 Climbing Salt Lake Center
04:03PM 46.6122 -113.8597 146° Southeast 385 443 15,300 2,220 Climbing Salt Lake Center
04:04PM 46.5122 -113.7589 145° Southeast 406 467 18,000 2,340 Climbing Salt Lake Center
04:05PM 46.4231 -113.6728 146° Southeast 389 448 20,100 1,860 Climbing Salt Lake Center
04:06PM 46.3381 -113.6461 168° South 377 434 21,900 2,040 Climbing Salt Lake Center
04:07PM 46.2139 -113.6342 176° South 373 429 24,400 2,220 Climbing Salt Lake Center
04:08PM 46.1094 -113.6269 177° South 376 433 26,600 2,160 Climbing Salt Lake Center
04:09PM 45.9933 -113.6167 176° South 380 437 28,900 2,100 Climbing Salt Lake Center
04:10PM 45.8853 -113.6069 176° South 383 441 31,000 1,920 Climbing Salt Lake Center
04:11PM 45.7758 -113.5978 177° South 386 444 32,900 1,440 Climbing Salt Lake Center
04:12PM 45.6611 -113.5875 176° South 401 461 34,000 1,020 Climbing Salt Lake Center
04:13PM 45.5342 -113.5761 176° South 438 504 35,000 960 Climbing Salt Lake Center
04:14PM 45.4033 -113.5644 176° South 457 526 36,000 960 Climbing Salt Lake Center
04:15PM 45.2714 -113.5531 177° South 472 543 37,000 960 Climbing Salt Lake Center
04:16PM 45.1208 -113.5400 176° South 484 557 38,100 960 Climbing Salt Lake Center
04:17PM 44.9903 -113.5275 176° South 490 564 39,100 960 Climbing Salt Lake Center
04:19PM 44.8378 -113.5147 177° South 492 566 40,200 900 Climbing Salt Lake Center
04:20PM 44.7089 -113.5031 176° South 487 560 41,000 360 Climbing Salt Lake Center
04:21PM 44.5589 -113.4900 176° South 484 557 41,000  Level Salt Lake Center
04:22PM 44.4258 -113.4794 177° South 490 564 41,000  Level Salt Lake Center
04:23PM 44.2894 -113.4675 176° South 502 578 41,000  Level Salt Lake Center
04:24PM 44.1300 -113.4550 177° South 510 587 41,000  Level Salt Lake Center
04:25PM 43.9914 -113.4422 176° South 517 595 41,000  Level Salt Lake Center
04:26PM 43.8342 -113.4292 177° South 510 587 41,000  Level Salt Lake Center
04:27PM 43.6986 -113.4178 177° South 509 586 41,000  Level Salt Lake Center
04:28PM 43.5403 -113.4044 177° South 510 587 41,000  Level Salt Lake Center
04:29PM 43.4039 -113.3939 177° South 511 588 41,000  Level Salt Lake Center
04:30PM 43.2461 -113.3917 179° South 509 586 41,000  Level Salt Lake Center
04:31PM 43.1106 -113.4028 183° South 509 586 41,000  Level Salt Lake Center
04:32PM 42.9525 -113.4125 183° South 510 587 41,000  Level Salt Lake Center
04:33PM 42.8172 -113.4217 183° South 509 586 41,000  Level Salt Lake Center
04:34PM 42.6717 -113.4317 183° South 512 589 41,000  Level Salt Lake Center
04:35PM 42.5303 -113.4381 182° South 510 587 41,000  Level Salt Lake Center
04:36PM 42.3889 -113.4483 183° South 511 588 41,000  Level Salt Lake Center
04:37PM 42.2469 -113.4586 183° South 512 589 41,000  Level Salt Lake Center
04:38PM 42.0769 -113.4689 183° South 511 588 41,000  Level Salt Lake Center
04:39PM 41.9344 -113.4769 182° South 514 592 41,000  Level Salt Lake Center
04:40PM 41.7928 -113.4867 183° South 513 590 41,000  Level Salt Lake Center
04:41PM 41.6492 -113.4931 182° South 516 594 41,000  Level Salt Lake Center
04:42PM 41.5058 -113.4878 178° South 517 595 41,000  Level Salt Lake Center
04:43PM 41.3614 -113.4833 179° South 520 598 41,000  Level Salt Lake Center
04:44PM 41.1903 -113.4775 179° South 517 595 41,000  Level Salt Lake Center
04:45PM 41.0472 -113.4744 179° South 517 595 41,000  Level Salt Lake Center
04:46PM 40.9056 -113.4700 179° South 515 593 41,000  Level Salt Lake Center
04:47PM 40.7636 -113.4658 179° South 512 589 41,000  Level Salt Lake Center
04:48PM 40.6192 -113.4619 179° South 518 596 41,000  Level Salt Lake Center
04:49PM 40.4769 -113.4575 179° South 515 593 41,000  Level Salt Lake Center
04:50PM 40.3047 -113.4519 179° South 516 594 41,000  Level Salt Lake Center
04:52PM 40.1608 -113.4486 179° South 517 595 41,000  Level Salt Lake Center
04:53PM 40.0186 -113.4444 179° South 514 592 41,000  Level Salt Lake Center
04:54PM 39.8753 -113.4400 179° South 514 592 41,000  Level Salt Lake Center
04:55PM 39.7261 -113.4369 179° South 515 593 41,000  Level Salt Lake Center
04:56PM 39.5819 -113.4308 178° South 517 595 41,000  Level Salt Lake Center
04:57PM 39.4386 -113.4272 179° South 517 595 41,000 -240 Level Salt Lake Center
04:58PM 39.2672 -113.4228 179° South 515 593 40,600 -720 Descending Salt Lake Center
04:59PM 39.1256 -113.4183 179° South 511 588 39,600 -1,020 Descending Salt Lake Center
05:00PM 38.9844 -113.4139 179° South 507 583 38,600 -1,200 Descending Salt Lake Center
05:01PM 38.8419 -113.4097 179° South 511 588 37,200 -1,440 Descending Salt Lake Center
05:02PM 38.6964 -113.4067 179° South 521 600 35,700 -1,080 Descending Salt Lake Center
05:03PM 38.5500 -113.4044 179° South 526 605 35,000 -660 Descending Salt Lake Center
05:04PM 38.4019 -113.3989 178° South 532 612 34,400 -1,200 Descending Salt Lake Center
05:05PM 38.2281 -113.3956 179° South 522 601 32,600 -1,200 Descending Salt Lake Center
05:06PM 38.0828 -113.3917 179° South 523 602 32,000 -300 Descending Salt Lake Center
05:07PM 37.9350 -113.3889 179° South 532 612 32,000  Level Salt Lake Center
05:08PM 37.7972 -113.4425 197° South 525 604 32,000  Level Salt Lake Center
05:09PM 37.6650 -113.5133 203° Southwest 522 601 32,000  Level Salt Lake Center
05:10PM 37.5861 -113.5539 202° Southwest 520 598 32,000 -300 Level Los Angeles Center
05:11PM 37.4519 -113.6242 203° Southwest 525 604 31,600 -1,320 Descending Los Angeles Center
05:12PM 37.2942 -113.7067 203° Southwest 516 594 29,300 -2,100 Descending Los Angeles Center
05:13PM 37.1611 -113.7758 203° Southwest 518 596 27,300 -1,920 Descending Los Angeles Center
05:14PM 37.0319 -113.8506 205° Southwest 515 593 25,300 -2,100 Descending Los Angeles Center
05:15PM 36.9142 -113.9667 218° Southwest 488 562 23,000 -2,160 Descending Los Angeles Center
05:16PM 36.8136 -114.0658 218° Southwest 467 537 20,900 -1,980 Descending Los Angeles Center
05:17PM 36.7247 -114.1525 218° Southwest 460 529 19,000 -2,040 Descending Los Angeles Center
05:18PM 36.6194 -114.2561 218° Southwest 439 505 16,800 -2,040 Descending Los Angeles Center
05:19PM 36.5286 -114.3442 218° Southwest 420 483 14,800 -2,160 Descending Los Angeles Center
05:19PM 36.5167 -114.3606 228° Southwest 413 475 14,500 -1,380 Descending Los Angeles Center
05:20PM 36.4625 -114.4086 216° Southwest 395 455 13,400 -1,740 Descending Los Angeles Center
05:20PM 36.4278 -114.4472 222° Southwest 340 391 12,600 -1,380 Descending Los Angeles Center
05:21PM 36.3761 -114.4828 209° Southwest 326 375 12,000 -600 Descending Los Angeles Center
05:21PM 36.3536 -114.4936 201° Southwest 299 344 12,000 -1,380 Level Los Angeles Center
05:22PM 36.3078 -114.5597 229° Southwest 286 329 10,600 -1,620 Descending Los Angeles Center
05:23PM 36.2692 -114.6486 242° Southwest 287 330 8,800 -1,740 Descending Los Angeles Center
05:23PM 36.2667 -114.6569 250° West 284 327 8,700 -1,500 Descending Los Angeles Center
05:24PM 36.2328 -114.7300 240° Southwest 276 318 7,300 -1,080 Descending Los Angeles Center
05:25PM 36.2003 -114.8022 241° Southwest 252 290 6,600 -780 Descending Los Angeles Center
05:25PM 36.1972 -114.8136 252° West 230 265 6,500 -600 Descending Los Angeles Center
05:26PM 36.1700 -114.8706 239° Southwest 230 265 6,000 -300 Descending Los Angeles Center
05:27PM 36.1353 -114.9542 243° Southwest 229 264 6,000  Level Los Angeles Center
05:27PM 36.1383 -114.9392 76° East 228 262 6,000 -1,140 Level Los Angeles Center
05:28PM 36.1353 -115.0236 267° West 199 229 4,900 -1,080 Descending Los Angeles Center
05:28PM 36.1356 -115.0225 73° East 202 232 4,900 -1,260 Level Los Angeles Center
05:29PM 36.1400 -115.0872 275° West 194 223 3,600 -1,320 Descending Los Angeles Center
05:29PM 36.1378 -115.0944 249° West 186 214 3,500 -780 Descending Los Angeles Center
05:30PM 36.1236 -115.1381 248° West 170 196 2,800 -840 Descending Los Angeles Center
05:30PM 36.1217 -115.1397 215° Southwest 145 167 2,700 -720 Descending Los Angeles Center
05:31PM 36.0900 -115.1578 205° Southwest 151 174 2,100 -600 Descending Los Angeles Center
05:33PM 36.0801 -115.1523 219° Southwest  Level Estimated